Time;durP1;ratioP1;P1;durP2;ratioP2;P2;SDS_P1;SDS_P2;PMS_P1;PMS_P2;Temp;Humidity;BMP_temperature;BMP_pressure;BME280_temperature;BME280_humidity;BME280_pressure;Samples;Min_cycle;Max_cycle;Signal;HPM_P1;HPM_P2
2021/03/26 00:01:49;;;;;;;82.50;43.78;;;;;;;8.94;100.00;101099.44;5204185;28;20043;-87
2021/03/26 00:04:23;;;;;;;79.32;40.55;;;;;;;8.96;100.00;101103.75;5218840;28;20022;-88
2021/03/26 00:06:54;;;;;;;79.47;43.25;;;;;;;8.92;100.00;101096.84;5220027;28;20107;-88
2021/03/26 00:09:28;;;;;;;74.15;41.42;;;;;;;8.95;100.00;101098.56;5200539;28;20446;-88
2021/03/26 00:12:02;;;;;;;84.97;44.05;;;;;;;8.90;100.00;101106.47;5224491;28;20025;-88
2021/03/26 00:14:33;;;;;;;85.35;44.45;;;;;;;8.93;100.00;101100.34;5232316;28;20042;-91
2021/03/26 00:17:06;;;;;;;84.53;44.75;;;;;;;8.95;100.00;101099.44;5215557;28;20021;-89
2021/03/26 00:19:37;;;;;;;81.63;44.97;;;;;;;8.96;100.00;101098.53;5196644;28;20020;-89
2021/03/26 00:22:07;;;;;;;90.50;44.90;;;;;;;8.96;100.00;101100.28;5207320;28;20066;-89
2021/03/26 00:24:38;;;;;;;83.05;44.08;;;;;;;8.99;100.00;101098.47;5206651;28;20141;-88
2021/03/26 00:27:08;;;;;;;84.28;45.88;;;;;;;9.00;100.00;101107.13;5210043;28;20025;-89
2021/03/26 00:29:38;;;;;;;85.13;45.00;;;;;;;9.02;100.00;101102.72;5221757;28;20149;-89
2021/03/26 00:32:09;;;;;;;94.03;46.80;;;;;;;9.08;100.00;101095.66;5207337;28;20459;-89
2021/03/26 00:34:39;;;;;;;90.47;47.38;;;;;;;9.03;100.00;101100.09;5207317;28;20029;-89
2021/03/26 00:37:09;;;;;;;98.00;49.28;;;;;;;8.93;100.00;101097.72;5226077;28;20364;-89
2021/03/26 00:39:42;;;;;;;93.78;49.20;;;;;;;9.17;100.00;101103.28;5207013;28;20393;-89
2021/03/26 00:42:13;;;;;;;83.85;45.40;;;;;;;9.36;100.00;101099.38;5208668;28;20028;-89
2021/03/26 00:44:43;;;;;;;93.50;44.58;;;;;;;9.51;100.00;101109.47;5249006;28;20064;-91
2021/03/26 00:47:14;;;;;;;79.15;42.10;;;;;;;9.43;100.00;101111.38;5231907;28;20539;-88
2021/03/26 00:49:47;;;;;;;84.20;43.85;;;;;;;9.25;100.00;101106.56;5208504;28;20456;-89
2021/03/26 00:52:20;;;;;;;89.70;45.20;;;;;;;9.04;100.00;101100.97;5207263;28;20462;-89
2021/03/26 00:54:51;;;;;;;87.55;44.95;;;;;;;9.13;100.00;101101.66;5207713;28;20035;-88
2021/03/26 00:57:21;;;;;;;86.05;47.20;;;;;;;9.04;100.00;101091.41;5214251;28;20081;-89
2021/03/26 00:59:51;;;;;;;90.93;47.28;;;;;;;9.00;100.00;101086.28;5238404;28;20025;-90
2021/03/26 01:02:22;;;;;;;89.45;46.50;;;;;;;9.04;100.00;101091.41;5207097;28;20436;-88
2021/03/26 01:04:52;;;;;;;95.00;49.13;;;;;;;9.04;100.00;101086.19;5206872;28;20036;-88
2021/03/26 01:07:23;;;;;;;107.82;51.65;;;;;;;9.05;100.00;101087.91;5205852;28;20032;-87
2021/03/26 01:09:53;;;;;;;91.75;47.45;;;;;;;9.11;100.00;101093.00;5223970;28;20550;-88
2021/03/26 01:12:23;;;;;;;93.57;48.85;;;;;;;9.09;100.00;101089.53;5204741;28;20486;-88
2021/03/26 01:14:54;;;;;;;78.72;41.10;;;;;;;8.92;100.00;101086.44;5228149;28;20025;-89
2021/03/26 01:17:24;;;;;;;85.25;43.78;;;;;;;9.22;100.00;101093.59;5228132;28;20052;-89
2021/03/26 01:20:34;;;;;;;76.10;41.72;;;;;;;9.14;100.00;101085.09;5206434;28;20033;-88
2021/03/26 01:23:34;;;;;;;82.30;43.13;;;;;;;8.87;100.00;101085.69;5206910;28;20021;-89
2021/03/26 01:26:34;;;;;;;84.13;41.88;;;;;;;8.87;100.00;101087.44;5197523;28;20032;-88
2021/03/26 01:29:16;;;;;;;87.60;43.72;;;;;;;8.81;100.00;101088.41;5204845;28;20059;-88
2021/03/26 01:31:46;;;;;;;86.18;43.80;;;;;;;8.90;100.00;101085.59;5213006;28;20086;-89
2021/03/26 01:34:39;;;;;;;88.57;45.80;;;;;;;8.75;100.00;101083.31;5206116;28;20032;-89
2021/03/26 01:40:46;;;;;;;83.72;43.72;;;;;;;8.79;100.00;101079.78;5223846;28;20025;-88
2021/03/26 01:44:02;;;;;;;90.00;45.88;;;;;;;8.88;100.00;101074.34;5185638;28;20048;-89
2021/03/26 01:46:51;;;;;;;92.20;46.78;;;;;;;8.89;100.00;101073.47;5212015;28;20125;-88
2021/03/26 01:51:54;;;;;;;87.45;45.60;;;;;;;9.14;100.00;101072.06;5176499;28;20054;-81
2021/03/26 01:54:25;;;;;;;89.05;45.78;;;;;;;9.22;100.00;101070.13;5176242;28;20036;-80
2021/03/26 01:56:55;;;;;;;79.45;41.60;;;;;;;9.30;100.00;101070.84;5179138;28;20391;-81
2021/03/26 01:59:25;;;;;;;71.38;38.50;;;;;;;9.20;100.00;101080.63;5182897;28;20033;-81
2021/03/26 02:02:00;;;;;;;75.40;39.38;;;;;;;9.18;100.00;101073.72;5179663;28;20530;-80
2021/03/26 02:04:42;;;;;;;76.50;40.85;;;;;;;9.18;100.00;101071.94;5180849;28;20041;-81
2021/03/26 02:07:16;;;;;;;89.22;45.28;;;;;;;8.90;100.00;101071.72;5181164;28;20079;-79
2021/03/26 02:09:46;;;;;;;94.57;47.75;;;;;;;8.79;100.00;101076.28;5181164;28;20042;-81
2021/03/26 02:12:25;;;;;;;91.20;47.80;;;;;;;8.77;100.00;101073.75;5180691;28;20036;-80
2021/03/26 02:15:07;;;;;;;97.75;48.58;;;;;;;8.70;100.00;101066.91;5181178;28;20030;-79
2021/03/26 02:17:40;;;;;;;94.32;48.92;;;;;;;8.72;100.00;101072.97;5181150;28;20030;-79
2021/03/26 02:20:34;;;;;;;94.82;49.60;;;;;;;8.71;100.00;101073.84;5182577;28;20022;-79
2021/03/26 02:23:08;;;;;;;94.95;48.00;;;;;;;8.87;100.00;101072.66;5184951;28;20030;-83
2021/03/26 02:25:40;;;;;;;95.93;48.80;;;;;;;8.85;100.00;101073.56;5167661;28;20030;-79
2021/03/26 02:28:11;;;;;;;92.63;47.25;;;;;;;8.79;100.00;101074.56;5185076;28;20139;-79
2021/03/26 02:30:48;;;;;;;93.72;47.03;;;;;;;8.86;100.00;101075.31;5185422;28;20039;-83
2021/03/26 02:33:19;;;;;;;93.15;48.47;;;;;;;8.79;100.00;101073.69;5184410;28;20032;-81
2021/03/26 02:36:10;;;;;;;97.07;49.03;;;;;;;8.66;100.00;101075.69;5184899;28;20507;-79
2021/03/26 02:38:45;;;;;;;95.82;48.08;;;;;;;8.60;100.00;101075.81;5184219;28;20061;-80
2021/03/26 02:41:33;;;;;;;90.10;45.58;;;;;;;8.66;100.00;101069.59;5184444;28;20044;-79
2021/03/26 02:44:33;;;;;;;89.97;47.40;;;;;;;8.68;100.00;101079.13;5184724;28;20038;-82
2021/03/26 02:47:27;;;;;;;86.95;46.45;;;;;;;8.70;100.00;101069.53;5164217;28;20033;-81
2021/03/26 02:50:23;;;;;;;91.07;47.35;;;;;;;8.71;100.00;101080.81;5162612;28;20400;-80
2021/03/26 02:53:28;;;;;;;99.35;50.15;;;;;;;8.74;100.00;101071.16;5164231;28;20073;-81
2021/03/26 02:56:09;;;;;;;89.90;48.35;;;;;;;8.78;100.00;101067.63;5159056;28;20037;-79
2021/03/26 02:58:47;;;;;;;98.85;49.85;;;;;;;8.84;100.00;101077.06;5164318;28;20026;-82
2021/03/26 03:01:29;;;;;;;92.70;47.22;;;;;;;8.90;100.00;101067.38;5173882;28;20025;-79
2021/03/26 03:04:08;;;;;;;94.68;46.35;;;;;;;8.91;100.00;101071.69;5164042;28;20029;-79
2021/03/26 03:06:46;;;;;;;87.28;43.70;;;;;;;8.90;100.00;101071.72;5163764;28;20030;-81
2021/03/26 03:09:19;;;;;;;82.78;43.22;;;;;;;8.96;100.00;101082.03;5163584;28;20026;-82
2021/03/26 03:12:23;;;;;;;83.25;44.30;;;;;;;9.01;100.00;101088.00;5163868;28;20508;-81
2021/03/26 03:15:04;;;;;;;83.32;43.42;;;;;;;8.63;100.00;101078.38;5158836;28;20504;-80
2021/03/26 03:17:40;;;;;;;91.43;45.45;;;;;;;8.27;100.00;101078.19;5163753;28;20026;-81
2021/03/26 03:20:46;;;;;;;91.22;47.70;;;;;;;8.26;100.00;101087.75;5163223;28;20042;-81
2021/03/26 03:23:25;;;;;;;98.80;47.85;;;;;;;8.60;100.00;101087.97;5163287;28;20030;-80
2021/03/26 03:26:02;;;;;;;91.82;46.60;;;;;;;8.59;100.00;101081.91;5163529;28;20045;-79
2021/03/26 03:28:41;;;;;;;93.05;47.72;;;;;;;8.35;100.00;101078.94;5189962;28;20386;-79
2021/03/26 03:31:24;;;;;;;96.40;49.22;;;;;;;8.22;100.00;101088.69;5184980;28;20088;-79
2021/03/26 03:34:00;;;;;;;94.70;48.97;;;;;;;8.09;100.00;101076.75;5182603;28;20732;-79
2021/03/26 03:36:46;;;;;;;100.50;51.40;;;;;;;7.95;100.00;101078.72;5183860;28;20022;-84
2021/03/26 03:39:26;;;;;;;108.22;51.60;;;;;;;7.85;100.00;101079.75;5183534;28;20040;-80
2021/03/26 03:42:18;;;;;;;105.47;52.38;;;;;;;7.74;100.00;101086.88;5183350;28;20762;-81
2021/03/26 03:44:58;;;;;;;99.05;49.78;;;;;;;8.09;100.00;101083.69;5185780;28;20022;-81
2021/03/26 03:47:40;;;;;;;96.15;47.78;;;;;;;8.10;100.00;101088.88;5203315;28;20021;-79
2021/03/26 03:50:21;;;;;;;94.28;47.53;;;;;;;7.89;100.00;101081.41;5203032;28;20029;-79
2021/03/26 03:53:04;;;;;;;90.57;47.30;;;;;;;7.99;100.00;101080.38;5203443;28;20414;-81
2021/03/26 03:55:36;;;;;;;99.28;48.85;;;;;;;7.81;100.00;101075.50;5203068;28;20060;-79
2021/03/26 03:58:29;;;;;;;104.75;50.53;;;;;;;7.50;100.00;101071.66;5201838;28;20026;-79
2021/03/26 04:01:11;;;;;;;99.82;48.38;;;;;;;7.42;100.00;101072.66;5182883;28;20029;-79
2021/03/26 04:03:48;;;;;;;101.60;49.60;;;;;;;7.31;100.00;101070.22;5183021;28;20479;-79
2021/03/26 04:06:30;;;;;;;94.50;47.58;;;;;;;7.30;100.00;101072.81;5181614;28;20104;-82
2021/03/26 04:09:14;;;;;;;97.32;49.92;;;;;;;7.27;100.00;101072.88;5183211;28;20527;-83
2021/03/26 04:11:46;;;;;;;95.07;46.92;;;;;;;7.24;100.00;101072.91;5182597;28;20033;-81
2021/03/26 04:14:23;;;;;;;93.88;47.35;;;;;;;7.31;100.00;101075.41;5182758;28;20076;-81
2021/03/26 04:17:11;;;;;;;91.35;46.95;;;;;;;7.27;100.00;101079.81;5182386;28;20025;-83
2021/03/26 04:19:47;;;;;;;95.68;48.60;;;;;;;7.28;100.00;101072.88;5182698;28;20033;-79
2021/03/26 04:22:22;;;;;;;93.00;46.38;;;;;;;7.28;100.00;101077.19;5182651;28;20032;-79
2021/03/26 04:25:04;;;;;;;95.60;47.15;;;;;;;7.21;100.00;101072.97;5182376;28;20084;-80
2021/03/26 04:27:39;;;;;;;92.60;46.95;;;;;;;7.14;100.00;101073.06;5182253;28;20034;-81
2021/03/26 04:30:19;;;;;;;92.83;45.33;;;;;;;7.14;100.00;101073.06;5182351;28;20076;-81
2021/03/26 04:32:50;;;;;;;91.30;46.10;;;;;;;7.10;100.00;101077.44;5181211;28;20032;-82
2021/03/26 04:35:23;;;;;;;101.80;48.63;;;;;;;6.95;100.00;101069.00;5182573;28;20029;-79
2021/03/26 04:38:02;;;;;;;95.32;47.17;;;;;;;6.95;100.00;101067.25;5182836;28;20029;-82
2021/03/26 04:40:42;;;;;;;95.78;47.20;;;;;;;6.80;100.00;101070.03;5182469;28;20037;-79
2021/03/26 04:43:22;;;;;;;96.80;48.63;;;;;;;6.75;100.00;101071.00;5182067;28;20029;-79
2021/03/26 04:46:05;;;;;;;97.70;48.72;;;;;;;6.69;100.00;101066.75;5182241;28;20381;-79
2021/03/26 04:48:39;;;;;;;104.00;51.97;;;;;;;6.69;100.00;101060.66;5182042;28;20028;-79
2021/03/26 04:51:24;;;;;;;106.00;52.47;;;;;;;6.68;100.00;101071.94;5182292;28;20048;-81
2021/03/26 04:54:09;;;;;;;108.18;54.78;;;;;;;6.77;100.00;101058.84;5180915;28;20022;-79
2021/03/26 04:56:48;;;;;;;112.97;55.53;;;;;;;6.84;100.00;101050.09;5180584;28;20053;-80
2021/03/26 04:59:34;;;;;;;122.07;57.80;;;;;;;6.89;100.00;101054.34;5180944;28;20062;-81
2021/03/26 05:02:10;;;;;;;118.50;57.08;;;;;;;6.95;100.00;101054.25;5181394;28;20101;-80
2021/03/26 05:04:43;;;;;;;101.65;52.33;;;;;;;7.14;100.00;101055.72;5181788;28;20048;-81
2021/03/26 05:07:19;;;;;;;94.60;48.65;;;;;;;7.11;100.00;101057.53;5181410;28;20022;-82
2021/03/26 05:09:54;;;;;;;94.82;48.00;;;;;;;7.05;100.00;101058.47;5181611;28;20034;-80
2021/03/26 05:12:30;;;;;;;87.95;45.10;;;;;;;6.99;100.00;101060.28;5182152;28;20022;-80
2021/03/26 05:15:12;;;;;;;87.38;44.83;;;;;;;7.03;100.00;101054.16;5181920;28;20056;-82
2021/03/26 05:17:51;;;;;;;94.90;47.60;;;;;;;6.76;100.00;101063.19;5181902;28;20110;-83
2021/03/26 05:20:32;;;;;;;103.85;49.67;;;;;;;6.72;100.00;101060.63;5182455;28;20113;-80
2021/03/26 05:23:10;;;;;;;106.63;52.10;;;;;;;6.65;100.00;101061.59;5182463;28;20032;-79
2021/03/26 05:25:44;;;;;;;107.57;52.60;;;;;;;6.62;100.00;101057.28;5181677;28;20369;-79
2021/03/26 05:28:21;;;;;;;99.25;49.95;;;;;;;6.94;100.00;101062.09;5181564;28;20034;-80
2021/03/26 05:30:52;;;;;;;95.57;48.92;;;;;;;6.92;100.00;101064.69;5181970;28;20034;-82
2021/03/26 05:33:46;;;;;;;99.35;50.17;;;;;;;6.84;100.00;101053.56;5181589;28;20113;-79
2021/03/26 05:36:26;;;;;;;96.07;48.42;;;;;;;6.91;100.00;101047.41;5181791;28;20109;-80
2021/03/26 05:39:08;;;;;;;96.75;49.65;;;;;;;7.01;100.00;101051.59;5181598;28;20452;-82
2021/03/26 05:42:11;;;;;;;90.35;47.25;;;;;;;7.08;100.00;101054.97;5181956;28;20030;-80
2021/03/26 05:44:50;;;;;;;96.07;48.00;;;;;;;7.03;100.00;101056.75;5187761;28;20017;-81
2021/03/26 05:47:43;;;;;;;94.20;47.35;;;;;;;6.90;100.00;101050.88;5202043;28;20028;-81
2021/03/26 05:50:29;;;;;;;95.03;47.95;;;;;;;6.90;100.00;101055.22;5202401;28;20631;-79
2021/03/26 05:53:05;;;;;;;82.55;45.03;;;;;;;7.07;100.00;101061.06;5202209;28;20072;-81
2021/03/26 05:55:49;;;;;;;100.75;50.38;;;;;;;6.87;100.00;101056.13;5163463;28;20034;-82
2021/03/26 05:58:52;;;;;;;102.90;49.67;;;;;;;7.06;100.00;101059.31;5180096;28;20026;-83
2021/03/26 06:02:08;;;;;;;103.13;50.28;;;;;;;7.27;100.00;101061.63;5185934;28;20022;-80
2021/03/26 06:05:15;;;;;;;88.47;46.92;;;;;;;7.40;100.00;101064.91;5185618;28;20109;-80
2021/03/26 06:08:07;;;;;;;92.15;47.72;;;;;;;7.56;100.00;101066.34;5185878;28;20471;-84
2021/03/26 06:10:40;;;;;;;92.32;48.97;;;;;;;7.96;100.00;101062.22;5185176;28;20129;-80
2021/03/26 06:13:35;;;;;;;93.05;49.58;;;;;;;7.88;100.00;101069.28;5185655;28;20478;-83
2021/03/26 06:16:27;;;;;;;95.35;50.08;;;;;;;8.02;100.00;101067.31;5185242;28;20539;-80
2021/03/26 06:19:09;;;;;;;97.32;50.60;;;;;;;8.07;100.00;101065.47;5185574;28;20030;-79
2021/03/26 06:22:08;;;;;;;103.97;53.50;;;;;;;8.01;100.00;101064.75;5185182;28;20029;-80
2021/03/26 06:24:44;;;;;;;97.95;51.35;;;;;;;8.22;100.00;101069.63;5189677;28;20056;-79
2021/03/26 06:27:20;;;;;;;100.97;51.72;;;;;;;8.38;100.00;101071.06;5185361;28;20063;-80
2021/03/26 06:30:19;;;;;;;98.50;51.78;;;;;;;8.35;100.00;101066.75;5185626;28;20029;-79
2021/03/26 06:33:28;;;;;;;105.05;53.20;;;;;;;8.25;100.00;101057.38;5185500;28;20036;-82
2021/03/26 06:36:15;;;;;;;105.80;53.45;;;;;;;8.58;100.00;101061.94;5186339;28;20098;-80
2021/03/26 06:39:02;;;;;;;99.22;52.63;;;;;;;8.70;100.00;101056.50;5187062;28;20552;-84
2021/03/26 06:41:57;;;;;;;99.07;52.03;;;;;;;9.12;100.00;101058.22;5186386;28;20029;-82
2021/03/26 06:44:39;;;;;;;98.30;52.10;;;;;;;9.17;100.00;101056.34;5186479;28;20026;-80
2021/03/26 06:47:12;;;;;;;103.65;53.95;;;;;;;9.40;100.00;101054.06;5185397;28;20028;-81
2021/03/26 06:49:56;;;;;;;96.90;53.80;;;;;;;9.58;100.00;101058.84;5186241;28;20034;-81
2021/03/26 06:52:54;;;;;;;101.80;53.97;;;;;;;9.50;100.00;101051.22;5186801;28;20053;-83
2021/03/26 06:55:44;;;;;;;94.75;52.42;;;;;;;9.66;100.00;101052.56;5186990;28;20033;-82
2021/03/26 06:58:35;;;;;;;94.53;52.78;;;;;;;9.88;100.00;101055.50;5185725;28;20033;-81
2021/03/26 07:01:14;;;;;;;93.68;51.38;;;;;;;10.05;100.00;101058.59;5185365;28;20029;-81
2021/03/26 07:03:58;;;;;;;94.88;52.25;;;;;;;10.11;100.00;101058.41;5185262;28;20115;-79
2021/03/26 07:06:49;;;;;;;89.38;51.28;;;;;;;10.12;100.00;101058.38;5184935;28;20029;-79
2021/03/26 07:09:50;;;;;;;86.82;50.55;;;;;;;10.10;100.00;101054.97;5185134;28;20557;-80
2021/03/26 07:12:43;;;;;;;87.57;51.60;;;;;;;10.50;100.00;101062.59;5183590;28;20037;-81
2021/03/26 07:15:21;;;;;;;92.10;52.03;;;;;;;10.50;100.00;101054.75;5190083;28;20048;-78
2021/03/26 07:18:36;;;;;;;90.13;53.00;;;;;;;10.71;100.00;101043.69;5204232;28;20483;-78
2021/03/26 07:21:25;;;;;;;88.78;49.40;;;;;;;10.72;100.00;101048.03;5188312;28;20085;-78
2021/03/26 07:24:32;;;;;;;80.07;48.25;;;;;;;10.84;100.00;101055.53;5203771;28;20075;-79
2021/03/26 07:27:19;;;;;;;79.93;46.95;;;;;;;11.12;98.75;101052.88;5204205;28;20021;-80
2021/03/26 07:30:15;;;;;;;80.32;46.67;;;;;;;11.25;97.81;101049.00;5203841;28;20116;-80
2021/03/26 07:33:01;;;;;;;80.20;47.42;;;;;;;11.25;98.03;101051.63;5204029;28;20152;-81
2021/03/26 07:36:04;;;;;;;84.22;46.63;;;;;;;11.54;97.04;101056.81;5186118;28;20498;-78
2021/03/26 07:39:01;;;;;;;77.82;44.95;;;;;;;11.24;97.28;101054.28;5204063;28;20037;-77
2021/03/26 07:41:34;;;;;;;;;;;;;;;11.19;96.68;101053.56;5204200;28;20021;-81
2021/03/26 07:44:07;;;;;;;78.95;45.05;;;;;;;11.27;96.45;101054.19;5203724;28;19915;-80
2021/03/26 07:46:49;;;;;;;75.13;44.10;;;;;;;11.93;93.36;101055.53;5203980;28;20985;-78
2021/03/26 07:49:55;;;;;;;73.30;43.95;;;;;;;12.17;92.61;101049.47;5203678;28;20037;-78
2021/03/26 07:52:48;;;;;;;73.78;43.50;;;;;;;13.17;88.61;101045.75;5203501;28;20033;-83
2021/03/26 07:55:22;;;;;;;68.22;40.72;;;;;;;14.11;84.46;101042.75;5203513;28;20021;-80
2021/03/26 07:58:32;;;;;;;66.68;41.22;;;;;;;15.01;82.40;101043.06;5203406;28;20503;-78
2021/03/26 08:01:12;;;;;;;62.42;38.50;;;;;;;14.68;80.81;101041.13;5195933;28;20109;-79
2021/03/26 08:04:07;;;;;;;62.17;37.92;;;;;;;14.87;80.76;101040.19;5212360;22;20036;-89
2021/03/26 08:07:15;;;;;;;60.67;36.90;;;;;;;16.07;78.17;101034.34;5245067;28;20031;-88
2021/03/26 08:09:49;;;;;;;59.17;36.92;;;;;;;15.96;79.23;101030.53;5228021;28;20481;-88
2021/03/26 08:12:51;;;;;;;57.67;35.40;;;;;;;15.46;78.88;101035.66;5239341;28;20038;-89
2021/03/26 08:15:26;;;;;;;57.05;35.78;;;;;;;15.15;78.41;101038.00;5228414;28;20032;-89
2021/03/26 08:18:06;;;;;;;55.45;34.60;;;;;;;16.87;76.72;101037.13;5226972;28;20017;-88
2021/03/26 08:21:14;;;;;;;54.33;33.78;;;;;;;17.59;72.58;101027.78;5224346;28;20079;-88
2021/03/26 08:24:01;;;;;;;47.45;31.23;;;;;;;18.71;68.23;101019.31;5231777;28;20111;-88
2021/03/26 08:26:41;;;;;;;47.03;31.40;;;;;;;18.60;67.70;101017.31;5243472;28;20029;-89
2021/03/26 08:29:26;;;;;;;43.25;30.48;;;;;;;19.52;63.44;101010.50;5222582;28;20041;-89
2021/03/26 08:32:29;;;;;;;40.88;29.10;;;;;;;19.88;64.09;101018.66;5220463;28;20082;-88
2021/03/26 08:35:20;;;;;;;39.75;29.33;;;;;;;19.60;64.19;101017.94;5220325;28;20020;-88
2021/03/26 08:38:04;;;;;;;42.03;29.55;;;;;;;18.92;64.72;101013.53;5223893;28;20389;-88
2021/03/26 08:40:59;;;;;;;42.40;29.60;;;;;;;19.85;63.63;101018.88;5226871;28;20822;-89
2021/03/26 08:43:32;;;;;;;39.20;28.23;;;;;;;20.48;62.08;101016.34;5226137;28;20039;-89
2021/03/26 08:46:07;;;;;;;39.70;28.77;;;;;;;20.36;60.64;101015.38;5244600;28;20568;-88
2021/03/26 08:49:05;;;;;;;39.38;28.73;;;;;;;20.90;61.13;101014.22;5226796;28;20117;-88
2021/03/26 08:51:54;;;;;;;39.13;28.63;;;;;;;20.17;61.46;101014.09;5244373;28;20116;-89
2021/03/26 08:54:49;;;;;;;37.63;29.25;;;;;;;20.29;60.47;101018.56;5244495;28;20449;-89
2021/03/26 08:57:41;;;;;;;44.58;30.67;;;;;;;20.09;59.38;101017.25;5226296;28;20505;-88
2021/03/26 09:00:35;;;;;;;40.80;28.77;;;;;;;19.90;61.08;101010.59;5243833;28;20032;-89
2021/03/26 09:03:24;;;;;;;40.88;30.63;;;;;;;20.13;60.78;101009.94;5241816;28;20446;-89
2021/03/26 09:06:06;;;;;;;40.10;30.20;;;;;;;20.18;61.69;101011.34;5244437;28;20405;-88
2021/03/26 09:09:06;;;;;;;39.70;30.05;;;;;;;20.41;61.04;101007.94;5244435;28;20020;-89
2021/03/26 09:11:53;;;;;;;39.88;30.35;;;;;;;19.43;63.11;101016.38;5225909;28;20028;-89
2021/03/26 09:14:34;;;;;;;43.05;30.48;;;;;;;19.38;62.15;101010.53;5215217;28;20458;-89
2021/03/26 09:17:21;;;;;;;40.60;30.05;;;;;;;19.76;61.89;101010.69;5244064;28;20040;-89
2021/03/26 09:20:20;;;;;;;40.60;28.85;;;;;;;18.72;63.27;101010.41;5226019;28;20032;-88
2021/03/26 09:23:14;;;;;;;36.97;28.63;;;;;;;16.87;68.54;101009.84;5225662;28;20053;-88
2021/03/26 09:25:59;;;;;;;44.92;32.08;;;;;;;16.27;71.65;101018.38;5226602;28;20036;-87
2021/03/26 09:28:40;;;;;;;48.03;33.30;;;;;;;15.59;73.40;101014.84;5225674;28;20021;-88
2021/03/26 09:31:31;;;;;;;37.22;27.02;;;;;;;15.62;71.88;101015.56;5243825;28;20028;-88
2021/03/26 09:34:25;;;;;;;33.47;24.58;;;;;;;15.81;70.63;101010.22;5222962;28;20070;-88
2021/03/26 09:37:11;;;;;;;42.10;28.80;;;;;;;16.19;73.15;101011.78;5243655;28;20508;-88
2021/03/26 09:39:44;;;;;;;42.90;30.38;;;;;;;17.16;73.14;101002.03;5243621;28;20094;-88
2021/03/26 09:42:22;;;;;;;43.20;29.73;;;;;;;17.26;71.87;101007.66;5235440;28;20362;-88
2021/03/26 09:45:09;;;;;;;46.45;30.35;;;;;;;17.45;70.25;101009.22;5227563;28;20024;-88
2021/03/26 09:48:01;;;;;;;42.28;28.48;;;;;;;17.50;67.88;101001.03;5241818;28;20044;-88
2021/03/26 09:50:38;;;;;;;41.92;28.17;;;;;;;17.31;69.08;100995.06;5216024;28;20320;-88
2021/03/26 09:53:15;;;;;;;37.38;25.58;;;;;;;17.44;69.48;100996.06;5225116;28;20686;-88
2021/03/26 09:55:46;;;;;;;33.05;24.40;;;;;;;17.49;68.60;100996.69;5235806;28;20401;-88
2021/03/26 09:58:24;;;;;;;31.42;23.35;;;;;;;16.89;66.21;100994.78;5225379;28;20017;-88
2021/03/26 10:00:57;;;;;;;32.17;24.30;;;;;;;16.58;68.50;100993.88;5225552;28;20651;-88
2021/03/26 10:03:49;;;;;;;32.80;24.15;;;;;;;16.80;68.92;100990.00;5243256;28;20038;-88
2021/03/26 10:07:01;;;;;;;34.33;24.38;;;;;;;16.73;67.28;100985.97;5225909;28;20033;-88
2021/03/26 10:10:43;;;;;;;35.03;24.58;;;;;;;16.69;67.70;100986.25;5217290;28;20028;-89
2021/03/26 10:12:41;;;;;;;40.45;29.08;;;;;;;16.59;71.17;100980.59;5242312;28;20385;-90
2021/03/26 10:15:35;;;;;;;44.13;29.35;;;;;;;15.98;72.66;100982.06;5224664;28;20493;-92
2021/03/26 10:18:16;;;;;;;40.97;27.48;;;;;;;15.69;72.67;100979.22;5225197;28;20024;-91
2021/03/26 10:20:59;;;;;;;41.13;29.40;;;;;;;15.95;75.87;100976.97;5239347;28;20083;-91
2021/03/26 10:24:01;;;;;;;44.70;29.88;;;;;;;15.45;74.86;100970.72;5224720;28;20112;-91
2021/03/26 10:26:49;;;;;;;42.97;29.77;;;;;;;15.51;75.79;100967.78;5241822;28;20028;-89
2021/03/26 10:29:44;;;;;;;41.08;28.77;;;;;;;15.44;75.63;100969.03;5242177;28;20028;-88
2021/03/26 10:32:25;;;;;;;42.33;29.25;;;;;;;15.72;76.91;100953.53;5214725;28;20036;-90
2021/03/26 10:35:15;;;;;;;32.65;22.48;;;;;;;16.21;74.77;100963.28;5225184;28;20121;-88
2021/03/26 10:37:57;;;;;;;25.10;16.73;;;;;;;16.75;71.23;100948.97;5235536;28;20021;-87
2021/03/26 10:40:57;;;;;;;19.13;12.38;;;;;;;16.97;66.96;100939.78;5225253;28;20025;-88
2021/03/26 10:43:37;;;;;;;20.02;12.93;;;;;;;16.93;65.74;100944.34;5226896;28;20538;-88
2021/03/26 10:46:35;;;;;;;20.45;13.10;;;;;;;16.92;63.72;100936.50;5229093;28;20051;-88
2021/03/26 10:49:18;;;;;;;22.45;11.85;;;;;;;16.93;62.60;100932.94;5220548;28;20097;-90
2021/03/26 10:51:57;;;;;;;19.17;12.93;;;;;;;16.95;62.58;100931.09;5208738;28;20078;-89
2021/03/26 10:54:32;;;;;;;20.25;12.77;;;;;;;16.61;62.44;100920.69;5221862;23;20063;-81
2021/03/26 10:57:21;;;;;;;20.23;13.25;;;;;;;16.48;62.84;100930.19;5214052;28;20620;-81
2021/03/26 10:59:52;;;;;;;24.58;13.82;;;;;;;16.27;62.54;100931.31;5217785;28;20044;-81
2021/03/26 11:02:54;;;;;;;21.20;13.40;;;;;;;16.54;62.88;100923.75;5208315;28;20055;-80
2021/03/26 11:05:37;;;;;;;19.40;12.93;;;;;;;16.59;61.52;100914.59;5206071;28;20021;-80
2021/03/26 11:08:17;;;;;;;20.17;12.20;;;;;;;16.72;62.25;100907.72;5246597;22;20056;-80
2021/03/26 11:11:09;;;;;;;17.15;12.35;;;;;;;17.08;63.67;100909.16;5223074;28;20033;-81
2021/03/26 11:13:46;;;;;;;19.50;13.75;;;;;;;17.25;60.80;100889.69;5224941;28;20036;-83
2021/03/26 11:16:32;;;;;;;19.60;13.25;;;;;;;17.39;62.27;100890.66;5227245;28;20071;-83
2021/03/26 11:19:11;;;;;;;21.88;14.25;;;;;;;17.57;63.74;100884.28;5206586;28;20123;-83
2021/03/26 11:21:48;;;;;;;21.83;14.00;;;;;;;17.42;63.17;100889.59;5206594;28;20084;-83
2021/03/26 11:24:19;;;;;;;21.25;12.63;;;;;;;17.18;59.87;100886.56;5205970;28;20115;-83
2021/03/26 11:27:01;;;;;;;19.55;13.05;;;;;;;16.79;60.97;100888.00;5207740;28;20049;-83
2021/03/26 11:29:35;;;;;;;17.85;12.60;;;;;;;16.60;59.90;100878.53;5216508;28;20029;-83
2021/03/26 11:32:06;;;;;;;22.48;12.25;;;;;;;16.89;59.38;100862.75;5207857;28;20104;-83
2021/03/26 11:34:55;;;;;;;18.90;12.98;;;;;;;16.90;58.38;100869.72;5207596;28;20112;-83
2021/03/26 11:37:55;;;;;;;19.52;12.93;;;;;;;16.70;58.45;100863.91;5205335;28;20155;-83
2021/03/26 11:40:44;;;;;;;20.95;13.20;;;;;;;16.91;58.81;100855.59;5202991;28;20056;-84
2021/03/26 11:43:27;;;;;;;17.83;12.65;;;;;;;16.91;57.31;100855.59;5193775;28;20066;-84
2021/03/26 11:46:06;;;;;;;21.17;13.40;;;;;;;16.87;58.87;100854.94;5210957;28;20033;-82
2021/03/26 11:48:57;;;;;;;21.73;14.63;;;;;;;16.69;59.79;100857.75;5198658;28;20113;-83
2021/03/26 11:51:36;;;;;;;22.13;14.43;;;;;;;16.51;60.47;100855.25;5212611;28;20116;-80
2021/03/26 11:54:21;;;;;;;21.08;14.35;;;;;;;16.61;61.81;100859.13;5209242;28;20029;-83
2021/03/26 11:57:05;;;;;;;23.98;15.55;;;;;;;16.70;61.10;100846.25;5206362;28;20112;-81
2021/03/26 11:59:38;;;;;;;26.38;15.38;;;;;;;16.48;61.78;100851.03;5216506;28;20029;-81
2021/03/26 12:02:17;;;;;;;21.63;14.80;;;;;;;16.48;61.51;100840.47;5210911;28;20456;-81
2021/03/26 12:05:07;;;;;;;21.58;14.55;;;;;;;16.57;61.86;100844.41;5186189;28;20029;-80
2021/03/26 12:07:48;;;;;;;22.90;14.63;;;;;;;16.60;62.12;100844.22;5206718;28;20074;-82
2021/03/26 12:10:34;;;;;;;23.70;15.55;;;;;;;16.65;61.66;100831.59;5204472;28;20029;-81
2021/03/26 12:13:08;;;;;;;;;;;;;;;17.05;62.72;100826.59;5205882;28;20041;-81
2021/03/26 12:15:54;;;;;;;23.27;14.45;;;;;;;16.91;61.36;100823.91;5194030;28;19960;-81
2021/03/26 12:18:28;;;;;;;;;;;;;;;16.95;61.19;100809.63;5203245;28;20021;-80
2021/03/26 12:21:20;;;;;;;18.45;12.95;;;;;;;17.36;60.32;100805.41;5204603;28;20449;-81
2021/03/26 12:24:10;;;;;;;18.52;12.30;;;;;;;17.18;59.67;100802.03;5204349;28;20041;-81
2021/03/26 12:26:51;;;;;;;16.98;11.68;;;;;;;17.24;60.90;100798.19;5205042;28;20033;-80
2021/03/26 12:29:24;;;;;;;18.10;13.10;;;;;;;17.26;59.64;100794.50;5216219;28;20028;-81